Kosipe Airport


Codes: KSP/KSP
Name: Kosipe Airport
City: Kosipe Mission
Country: Papua New Guinea
Elevation: 6350 ft.

Photos at Kosipe Airport


   Photos courtesy of SpottingLog. You can add your own sightings and photos by signing up for a free trial today.



No photos found.

Weather at Kosipe Airport


Time (UTC)DescriptionTempratureWindCloud coverageVisibilityPressureHumidity
19-Apr-2024 06:00Moderate Rain22°C2 mph, W75%10000m1011hPa72%
19-Apr-2024 09:00Moderate Rain18°C4 mph, NE83%8046m1013hPa86%
19-Apr-2024 12:00Light Rain16°C4 mph, NE87%10000m1016hPa92%
19-Apr-2024 15:00Light Rain14°C4 mph, NE100%10000m1015hPa86%
19-Apr-2024 18:00Overcast Clouds14°C7 mph, NE100%10000m1015hPa84%
19-Apr-2024 21:00Overcast Clouds14°C4 mph, NE100%10000m1017hPa82%
20-Apr-2024 00:00Overcast Clouds22°C2 mph, W100%10000m1015hPa53%
20-Apr-2024 03:00Overcast Clouds24°C4 mph, SW100%10000m1011hPa54%
20-Apr-2024 06:00Light Rain18°C2 mph, SW100%2141m1012hPa90%
20-Apr-2024 09:00Light Rain17°C0 mph, N98%10000m1014hPa96%
20-Apr-2024 12:00Light Rain15°C2 mph, NE94%10000m1016hPa95%
20-Apr-2024 15:00Light Rain15°C4 mph, NE100%10000m1015hPa91%
20-Apr-2024 18:00Overcast Clouds14°C4 mph, NE100%10000m1015hPa84%
20-Apr-2024 21:00Overcast Clouds14°C4 mph, NE100%10000m1017hPa75%
21-Apr-2024 00:00Overcast Clouds22°C0 mph, W100%10000m1015hPa46%
21-Apr-2024 03:00Overcast Clouds24°C4 mph, SW100%10000m1011hPa48%
21-Apr-2024 06:00Light Rain21°C2 mph, SW100%10000m1011hPa77%
21-Apr-2024 09:00Light Rain17°C2 mph, NE100%10000m1014hPa96%
21-Apr-2024 12:00Light Rain16°C2 mph, NE100%10000m1015hPa92%
21-Apr-2024 15:00Light Rain15°C4 mph, NE100%10000m1015hPa92%
21-Apr-2024 18:00Overcast Clouds14°C4 mph, NE99%10000m1014hPa87%
21-Apr-2024 21:00Broken Clouds15°C4 mph, NE57%10000m1016hPa80%
22-Apr-2024 00:00Broken Clouds23°C2 mph, SW81%10000m1014hPa48%
22-Apr-2024 03:00Light Rain24°C4 mph, SW100%10000m1010hPa53%
22-Apr-2024 06:00Moderate Rain20°C0 mph, NE100%5618m1011hPa80%
22-Apr-2024 09:00Light Rain16°C2 mph, NE100%4424m1014hPa94%
22-Apr-2024 12:00Light Rain15°C4 mph, NE100%10000m1016hPa90%
22-Apr-2024 15:00Overcast Clouds14°C4 mph, NE100%10000m1015hPa82%
22-Apr-2024 18:00Overcast Clouds13°C7 mph, NE87%10000m1014hPa77%
22-Apr-2024 21:00Overcast Clouds14°C7 mph, NE98%10000m1016hPa75%
23-Apr-2024 00:00Overcast Clouds23°C0 mph, W99%10000m1014hPa47%
23-Apr-2024 03:00Overcast Clouds24°C4 mph, SW100%10000m1011hPa51%
23-Apr-2024 06:00Light Rain20°C0 mph, S99%10000m1011hPa76%
23-Apr-2024 09:00Light Rain16°C4 mph, NE100%10000m1014hPa93%
23-Apr-2024 12:00Light Rain15°C4 mph, NE100%10000m1016hPa92%
23-Apr-2024 15:00Broken Clouds14°C7 mph, NE83%10000m1015hPa85%
23-Apr-2024 18:00Broken Clouds14°C7 mph, NE76%10000m1015hPa81%
23-Apr-2024 21:00Few Clouds15°C4 mph, NE11%10000m1016hPa79%
24-Apr-2024 00:00Few Clouds23°C2 mph, SW23%10000m1014hPa47%
24-Apr-2024 03:00Light Rain23°C4 mph, SW100%10000m1011hPa57%